Time;durP1;ratioP1;P1;durP2;ratioP2;P2;SDS_P1;SDS_P2;PMS_P1;PMS_P2;Temp;Humidity;BMP_temperature;BMP_pressure;BME280_temperature;BME280_humidity;BME280_pressure;Samples;Min_cycle;Max_cycle;Signal;HPM_P1;HPM_P2
2022/08/27 00:01:19;;;;;;;12.98;7.07;;;;;;;;;;4881637;29;20115;-80
2022/08/27 00:03:46;;;;;;;15.82;7.45;;;;;;;;;;4897999;29;20028;-77
2022/08/27 00:06:15;;;;;;;12.90;7.00;;;;;;;;;;4881790;29;20036;-81
2022/08/27 00:08:42;;;;;;;12.00;6.82;;;;;;;;;;4881595;29;20036;-77
2022/08/27 00:11:09;;;;;;;16.00;6.30;;;;;;;;;;4881271;29;20120;-77
2022/08/27 00:13:35;;;;;;;11.60;6.30;;;;;;;;;;4881314;29;20578;-76
2022/08/27 00:16:01;;;;;;;14.00;5.80;;;;;;;;;;4898587;29;20028;-77
2022/08/27 00:18:29;;;;;;;12.95;5.93;;;;;;;;;;4881252;29;20132;-81
2022/08/27 00:20:55;;;;;;;26.83;6.25;;;;;;;;;;4898124;29;20052;-78
2022/08/27 00:23:21;;;;;;;15.20;5.60;;;;;;;;;;4881360;29;20029;-74
2022/08/27 00:25:47;;;;;;;12.95;5.25;;;;;;;;;;4899215;29;20029;-77
2022/08/27 00:28:14;;;;;;;15.52;5.72;;;;;;;;;;4901821;29;20032;-77
2022/08/27 00:30:40;;;;;;;10.82;5.57;;;;;;;;;;4884921;29;20028;-76
2022/08/27 00:33:06;;;;;;;10.77;6.03;;;;;;;;;;4901472;29;20051;-76
2022/08/27 00:35:33;;;;;;;10.15;6.00;;;;;;;;;;4902179;29;20378;-80
2022/08/27 00:37:59;;;;;;;14.45;6.30;;;;;;;;;;4884661;29;20399;-77
2022/08/27 00:40:26;;;;;;;10.88;5.95;;;;;;;;;;4884763;29;20021;-77
2022/08/27 00:42:52;;;;;;;15.55;6.32;;;;;;;;;;4884566;29;20064;-76
2022/08/27 00:45:20;;;;;;;14.07;6.03;;;;;;;;;;4901300;29;20401;-76
2022/08/27 00:47:49;;;;;;;21.48;6.90;;;;;;;;;;4884748;29;20052;-77
2022/08/27 00:50:20;;;;;;;14.52;6.30;;;;;;;;;;4884794;29;20033;-79
2022/08/27 00:52:51;;;;;;;15.05;6.53;;;;;;;;;;4884427;29;20049;-75
2022/08/27 00:55:20;;;;;;;11.27;5.80;;;;;;;;;;4884783;29;20067;-76
2022/08/27 00:57:49;;;;;;;23.15;6.72;;;;;;;;;;4901670;29;20024;-80
2022/08/27 01:00:16;;;;;;;9.68;6.00;;;;;;;;;;4901307;29;20033;-80
2022/08/27 01:02:45;;;;;;;13.40;6.28;;;;;;;;;;4901423;29;20482;-80
2022/08/27 01:05:16;;;;;;;14.55;6.00;;;;;;;;;;4884233;29;20446;-77
2022/08/27 01:07:45;;;;;;;20.95;6.10;;;;;;;;;;4883860;29;20486;-76
2022/08/27 01:10:14;;;;;;;15.45;6.15;;;;;;;;;;4884182;29;20479;-81
2022/08/27 01:12:41;;;;;;;10.60;5.82;;;;;;;;;;4883909;29;20127;-77
2022/08/27 01:15:09;;;;;;;17.13;5.93;;;;;;;;;;4884559;29;20475;-77
2022/08/27 01:17:36;;;;;;;15.55;6.43;;;;;;;;;;4884264;29;20383;-78
2022/08/27 01:20:04;;;;;;;12.15;6.10;;;;;;;;;;4884284;29;20033;-77
2022/08/27 01:22:49;;;;;;;11.02;5.70;;;;;;;;;;4900817;29;20060;-77
2022/08/27 01:25:16;;;;;;;12.75;5.20;;;;;;;;;;4884992;29;20041;-81
2022/08/27 01:27:43;;;;;;;14.48;5.78;;;;;;;;;;4884948;29;20115;-81
2022/08/27 01:30:10;;;;;;;15.00;6.30;;;;;;;;;;4883673;29;20533;-77
2022/08/27 01:32:37;;;;;;;13.35;6.28;;;;;;;;;;4883914;29;20025;-77
2022/08/27 01:35:06;;;;;;;15.73;6.32;;;;;;;;;;4883721;29;20127;-77
2022/08/27 01:37:33;;;;;;;11.13;5.72;;;;;;;;;;4882951;29;20028;-77
2022/08/27 01:40:00;;;;;;;13.25;5.72;;;;;;;;;;4883438;29;20030;-76
2022/08/27 01:42:26;;;;;;;10.32;4.97;;;;;;;;;;4883693;29;20030;-81
2022/08/27 01:44:54;;;;;;;11.98;4.97;;;;;;;;;;4900698;29;20047;-80
2022/08/27 01:47:21;;;;;;;10.80;4.47;;;;;;;;;;4883351;29;20108;-77
2022/08/27 01:49:48;;;;;;;10.93;4.55;;;;;;;;;;4884792;29;20114;-77
2022/08/27 01:52:16;;;;;;;6.38;3.88;;;;;;;;;;4883125;29;20096;-80
2022/08/27 01:54:42;;;;;;;8.55;4.45;;;;;;;;;;4883987;29;20048;-77
2022/08/27 01:57:08;;;;;;;9.32;3.83;;;;;;;;;;4883120;29;20025;-79
2022/08/27 01:59:35;;;;;;;7.80;4.10;;;;;;;;;;4883026;29;20035;-79
2022/08/27 02:02:01;;;;;;;7.32;3.78;;;;;;;;;;4899640;29;20021;-80
2022/08/27 02:04:28;;;;;;;6.25;3.17;;;;;;;;;;4882980;29;20028;-77
2022/08/27 02:06:54;;;;;;;16.38;4.45;;;;;;;;;;4883338;29;20033;-80
2022/08/27 02:09:21;;;;;;;6.10;3.67;;;;;;;;;;4882951;29;20088;-80
2022/08/27 02:11:47;;;;;;;8.27;3.38;;;;;;;;;;4883147;29;20028;-77
2022/08/27 02:14:14;;;;;;;7.70;4.25;;;;;;;;;;4899512;29;20056;-80
2022/08/27 02:16:40;;;;;;;7.20;3.58;;;;;;;;;;4899249;29;20076;-77
2022/08/27 02:19:07;;;;;;;7.90;3.63;;;;;;;;;;4883746;29;20416;-77
2022/08/27 02:21:33;;;;;;;7.75;3.40;;;;;;;;;;4883491;29;20033;-78
2022/08/27 02:23:59;;;;;;;9.65;3.65;;;;;;;;;;4882900;29;20045;-77
2022/08/27 02:26:26;;;;;;;6.63;3.30;;;;;;;;;;4899606;29;20032;-77
2022/08/27 02:28:53;;;;;;;10.68;3.83;;;;;;;;;;4882821;29;20084;-80
2022/08/27 02:31:20;;;;;;;6.45;3.33;;;;;;;;;;4882550;29;20402;-75
2022/08/27 02:33:46;;;;;;;15.65;3.90;;;;;;;;;;4899835;29;20020;-77
2022/08/27 02:36:12;;;;;;;9.18;3.15;;;;;;;;;;4882784;29;20183;-77
2022/08/27 02:38:39;;;;;;;4.55;3.00;;;;;;;;;;4882725;29;20024;-80
2022/08/27 02:41:05;;;;;;;6.18;2.97;;;;;;;;;;4882934;29;20040;-77
2022/08/27 02:43:31;;;;;;;8.35;3.38;;;;;;;;;;4882222;29;20391;-81
2022/08/27 02:45:57;;;;;;;6.07;3.10;;;;;;;;;;4882194;29;20398;-80
2022/08/27 02:48:24;;;;;;;5.90;3.20;;;;;;;;;;4882418;29;20032;-80
2022/08/27 02:50:51;;;;;;;6.13;3.45;;;;;;;;;;4882892;29;20115;-75
2022/08/27 02:53:17;;;;;;;7.30;3.10;;;;;;;;;;4882035;29;20063;-80
2022/08/27 02:55:44;;;;;;;7.55;3.30;;;;;;;;;;4882272;29;20033;-76
2022/08/27 02:58:14;;;;;;;5.38;3.03;;;;;;;;;;4882284;29;20037;-77
2022/08/27 03:00:41;;;;;;;8.20;3.47;;;;;;;;;;4882212;29;20033;-80
2022/08/27 03:03:09;;;;;;;8.05;3.22;;;;;;;;;;4882142;29;20039;-77
2022/08/27 03:05:35;;;;;;;5.03;2.75;;;;;;;;;;4899320;29;20039;-81
2022/08/27 03:08:02;;;;;;;10.77;3.53;;;;;;;;;;4899238;29;20088;-80
2022/08/27 03:10:28;;;;;;;5.97;2.80;;;;;;;;;;4881967;29;20439;-80
2022/08/27 03:12:55;;;;;;;6.93;2.75;;;;;;;;;;4882265;29;20131;-77
2022/08/27 03:15:21;;;;;;;6.13;3.13;;;;;;;;;;4899013;29;20118;-76
2022/08/27 03:20:32;;;;;;;9.57;3.58;;;;;;;;;;4899022;29;20092;-75
2022/08/27 03:22:59;;;;;;;9.57;2.97;;;;;;;;;;4898872;29;20033;-77
2022/08/27 03:25:25;;;;;;;8.45;2.92;;;;;;;;;;4899002;29;20047;-76
2022/08/27 03:27:51;;;;;;;13.65;3.22;;;;;;;;;;4899592;29;20466;-76
2022/08/27 03:30:19;;;;;;;7.05;3.88;;;;;;;;;;4881678;29;20033;-77
2022/08/27 03:32:45;;;;;;;5.88;3.38;;;;;;;;;;4881880;29;20024;-80
2022/08/27 03:35:12;;;;;;;6.15;3.30;;;;;;;;;;4898441;29;20037;-80
2022/08/27 03:37:38;;;;;;;13.90;3.70;;;;;;;;;;4881963;29;20478;-78
2022/08/27 03:40:05;;;;;;;8.73;3.60;;;;;;;;;;4882424;29;20561;-75
2022/08/27 03:42:32;;;;;;;8.68;3.28;;;;;;;;;;4899002;29;20530;-79
2022/08/27 03:44:58;;;;;;;10.55;4.22;;;;;;;;;;4881596;29;20041;-80
2022/08/27 03:47:24;;;;;;;8.00;3.42;;;;;;;;;;4898387;29;20029;-80
2022/08/27 03:49:51;;;;;;;9.98;3.97;;;;;;;;;;4881536;29;20036;-76
2022/08/27 03:52:18;;;;;;;8.60;3.53;;;;;;;;;;4873438;29;20136;-76
2022/08/27 03:54:44;;;;;;;7.00;3.80;;;;;;;;;;4862876;29;20489;-75
2022/08/27 03:57:11;;;;;;;9.20;4.18;;;;;;;;;;4879998;29;20395;-75
2022/08/27 03:59:37;;;;;;;8.00;3.88;;;;;;;;;;4863026;29;20062;-80
2022/08/27 04:02:04;;;;;;;5.75;3.45;;;;;;;;;;4865680;29;20029;-77
2022/08/27 04:04:30;;;;;;;9.95;4.30;;;;;;;;;;4866471;29;20044;-76
2022/08/27 04:06:57;;;;;;;12.70;4.20;;;;;;;;;;4883381;29;20036;-80
2022/08/27 04:09:23;;;;;;;15.27;4.40;;;;;;;;;;4866570;29;20064;-75
2022/08/27 04:11:49;;;;;;;7.30;4.00;;;;;;;;;;4866494;29;20029;-77
2022/08/27 04:14:17;;;;;;;8.80;4.20;;;;;;;;;;4866619;29;20029;-77
2022/08/27 04:16:43;;;;;;;10.23;4.13;;;;;;;;;;4866431;29;20521;-78
2022/08/27 04:19:11;;;;;;;8.38;3.70;;;;;;;;;;4882991;29;20093;-80
2022/08/27 04:21:38;;;;;;;8.35;4.32;;;;;;;;;;4866272;29;20086;-75
2022/08/27 04:24:04;;;;;;;10.35;3.90;;;;;;;;;;4867275;29;20403;-76
2022/08/27 04:26:30;;;;;;;8.65;3.92;;;;;;;;;;4883509;29;20033;-75
2022/08/27 04:28:57;;;;;;;11.68;4.32;;;;;;;;;;4883258;29;20037;-76
2022/08/27 04:31:24;;;;;;;10.05;4.53;;;;;;;;;;4883480;29;20025;-80
2022/08/27 04:33:52;;;;;;;9.05;5.07;;;;;;;;;;4866640;29;20054;-76
2022/08/27 04:36:19;;;;;;;7.75;4.07;;;;;;;;;;4866203;29;20029;-77
2022/08/27 04:38:45;;;;;;;7.72;4.30;;;;;;;;;;4866062;29;20035;-75
2022/08/27 04:41:22;;;;;;;9.15;4.28;;;;;;;;;;4883560;29;20037;-80
2022/08/27 04:43:58;;;;;;;9.75;4.90;;;;;;;;;;4866064;29;20048;-77
2022/08/27 04:46:29;;;;;;;9.07;5.18;;;;;;;;;;4865999;29;20025;-79
2022/08/27 04:48:56;;;;;;;14.65;5.30;;;;;;;;;;4865785;29;20032;-79
2022/08/27 04:51:22;;;;;;;8.80;5.45;;;;;;;;;;4866698;29;20037;-80
2022/08/27 04:53:48;;;;;;;10.63;5.65;;;;;;;;;;4884516;29;20051;-80
2022/08/27 04:56:16;;;;;;;14.85;5.68;;;;;;;;;;4884387;29;20025;-75
2022/08/27 04:58:42;;;;;;;14.50;5.85;;;;;;;;;;4902145;29;20037;-76
2022/08/27 05:01:09;;;;;;;13.40;6.28;;;;;;;;;;4884622;29;20493;-80
2022/08/27 05:03:35;;;;;;;10.88;5.47;;;;;;;;;;4884155;29;20442;-79
2022/08/27 05:06:05;;;;;;;10.43;4.90;;;;;;;;;;4901247;29;20036;-80
2022/08/27 05:08:31;;;;;;;11.68;6.00;;;;;;;;;;4884390;29;20029;-79
2022/08/27 05:10:59;;;;;;;13.20;6.07;;;;;;;;;;4884671;29;20115;-77
2022/08/27 05:13:25;;;;;;;11.27;6.28;;;;;;;;;;4883023;29;20031;-76
2022/08/27 05:16:01;;;;;;;11.10;6.40;;;;;;;;;;4900949;29;20028;-77
2022/08/27 05:18:28;;;;;;;11.30;6.55;;;;;;;;;;4884379;29;20180;-80
2022/08/27 05:20:55;;;;;;;14.63;6.72;;;;;;;;;;4884322;29;20359;-76
2022/08/27 05:23:22;;;;;;;12.90;5.95;;;;;;;;;;4887708;29;20017;-80
2022/08/27 05:25:53;;;;;;;14.98;6.20;;;;;;;;;;4908283;29;20120;-77
2022/08/27 05:28:22;;;;;;;12.02;5.90;;;;;;;;;;4903775;29;20532;-77
2022/08/27 05:30:50;;;;;;;14.75;5.55;;;;;;;;;;4900531;29;20101;-74
2022/08/27 05:33:17;;;;;;;11.73;5.30;;;;;;;;;;4911484;29;20020;-75
2022/08/27 05:35:45;;;;;;;8.57;3.88;;;;;;;;;;4913107;29;20546;-76
2022/08/27 05:38:11;;;;;;;13.68;4.40;;;;;;;;;;4910149;29;20472;-74
2022/08/27 05:40:39;;;;;;;10.30;3.85;;;;;;;;;;4916279;29;20020;-76
2022/08/27 05:43:06;;;;;;;7.15;3.00;;;;;;;;;;4902652;29;20028;-76
2022/08/27 05:45:32;;;;;;;6.72;2.75;;;;;;;;;;4908059;29;20040;-74
2022/08/27 05:47:58;;;;;;;10.60;2.40;;;;;;;;;;4911446;29;20454;-75
2022/08/27 05:50:28;;;;;;;8.40;2.47;;;;;;;;;;4913940;29;20397;-76
2022/08/27 05:52:54;;;;;;;5.13;2.15;;;;;;;;;;4918472;29;20044;-76
2022/08/27 05:55:20;;;;;;;8.80;2.75;;;;;;;;;;4917823;29;20398;-76
2022/08/27 05:57:46;;;;;;;5.55;2.15;;;;;;;;;;4917442;29;20031;-76
2022/08/27 06:02:57;;;;;;;4.07;1.90;;;;;;;;;;4919122;29;20167;-75
2022/08/27 06:05:27;;;;;;;4.22;1.58;;;;;;;;;;4917297;29;20152;-77
2022/08/27 06:07:53;;;;;;;5.35;2.03;;;;;;;;;;4928516;29;20433;-77
2022/08/27 06:10:19;;;;;;;5.13;1.98;;;;;;;;;;4927947;29;20111;-74
2022/08/27 06:12:45;;;;;;;4.80;1.88;;;;;;;;;;4926943;29;20477;-75
2022/08/27 06:15:11;;;;;;;7.15;2.00;;;;;;;;;;4914281;29;20023;-74
2022/08/27 06:17:38;;;;;;;3.47;1.73;;;;;;;;;;4920822;29;20063;-76
2022/08/27 06:20:04;;;;;;;4.55;2.10;;;;;;;;;;4924427;29;20024;-75
2022/08/27 06:22:30;;;;;;;7.00;2.17;;;;;;;;;;4929593;29;20039;-76
2022/08/27 06:24:57;;;;;;;4.28;2.00;;;;;;;;;;4926278;29;20046;-73
2022/08/27 06:27:23;;;;;;;4.35;2.15;;;;;;;;;;4921044;29;20031;-74
2022/08/27 06:29:49;;;;;;;4.80;1.80;;;;;;;;;;4919686;29;20024;-74
2022/08/27 06:32:16;;;;;;;9.60;1.98;;;;;;;;;;4903369;29;20032;-76
2022/08/27 06:34:42;;;;;;;5.88;1.83;;;;;;;;;;4901316;29;20119;-76
2022/08/27 06:37:08;;;;;;;3.70;1.80;;;;;;;;;;4918454;29;20064;-76
2022/08/27 06:39:35;;;;;;;4.78;1.73;;;;;;;;;;4918503;29;20161;-77
2022/08/27 06:42:01;;;;;;;4.60;1.70;;;;;;;;;;4920737;29;20024;-76
2022/08/27 06:44:28;;;;;;;5.95;1.48;;;;;;;;;;4922218;29;20043;-77
2022/08/27 06:46:57;;;;;;;6.03;1.33;;;;;;;;;;4924848;29;20023;-76
2022/08/27 06:49:23;;;;;;;3.95;1.40;;;;;;;;;;4923989;29;20059;-78
2022/08/27 06:51:49;;;;;;;5.35;1.70;;;;;;;;;;4926585;29;20044;-74
2022/08/27 06:54:18;;;;;;;5.75;1.70;;;;;;;;;;4905393;29;20032;-77
2022/08/27 06:56:44;;;;;;;6.63;2.10;;;;;;;;;;4901690;29;20091;-79
2022/08/27 06:59:14;;;;;;;4.25;1.52;;;;;;;;;;4901395;29;20024;-78
2022/08/27 07:01:42;;;;;;;4.32;2.03;;;;;;;;;;4900986;29;20127;-76
2022/08/27 07:04:09;;;;;;;6.25;2.13;;;;;;;;;;4901123;29;20176;-75
2022/08/27 07:06:36;;;;;;;7.78;1.83;;;;;;;;;;4901192;29;20032;-88
2022/08/27 07:09:03;;;;;;;5.03;2.20;;;;;;;;;;4916614;29;20481;-81
2022/08/27 07:11:33;;;;;;;6.55;2.15;;;;;;;;;;4917329;29;20040;-83
2022/08/27 07:13:59;;;;;;;5.85;2.22;;;;;;;;;;4918290;29;20028;-87
2022/08/27 07:16:27;;;;;;;5.63;2.50;;;;;;;;;;4917692;29;20032;-86
2022/08/27 07:18:55;;;;;;;4.68;2.45;;;;;;;;;;4917811;29;20032;-87
2022/08/27 07:21:24;;;;;;;10.20;2.38;;;;;;;;;;4923079;29;20028;-78
2022/08/27 07:23:51;;;;;;;5.28;2.65;;;;;;;;;;4917857;29;20032;-83
2022/08/27 07:26:18;;;;;;;6.25;2.47;;;;;;;;;;4917650;29;20039;-90
2022/08/27 07:28:45;;;;;;;5.47;2.58;;;;;;;;;;4917555;29;20032;-85
2022/08/27 07:31:12;;;;;;;5.90;1.98;;;;;;;;;;4923917;29;20088;-86
2022/08/27 07:33:40;;;;;;;7.90;2.30;;;;;;;;;;4936912;29;20027;-76
2022/08/27 07:36:06;;;;;;;5.60;2.47;;;;;;;;;;4936353;29;20035;-81
2022/08/27 07:38:33;;;;;;;4.40;1.90;;;;;;;;;;4919693;29;20055;-81
2022/08/27 07:40:59;;;;;;;6.32;2.92;;;;;;;;;;4905535;29;20537;-84
2022/08/27 07:46:10;;;;;;;5.78;2.35;;;;;;;;;;4936854;29;20070;-82
2022/08/27 07:48:36;;;;;;;7.60;2.80;;;;;;;;;;4919662;29;20030;-89
2022/08/27 07:51:04;;;;;;;7.43;2.30;;;;;;;;;;4920299;29;20035;-86
2022/08/27 07:53:31;;;;;;;8.27;2.30;;;;;;;;;;4921054;29;20420;-84
2022/08/27 07:56:02;;;;;;;8.13;2.60;;;;;;;;;;4922202;29;20020;-92
2022/08/27 07:58:28;;;;;;;7.60;2.80;;;;;;;;;;4931707;29;20036;-86
2022/08/27 08:00:55;;;;;;;7.30;2.80;;;;;;;;;;4919336;29;20070;-81
2022/08/27 08:03:21;;;;;;;5.32;2.40;;;;;;;;;;4920340;29;20477;-88
2022/08/27 08:05:48;;;;;;;5.93;2.30;;;;;;;;;;4919744;29;20036;-81
2022/08/27 08:08:14;;;;;;;9.32;2.55;;;;;;;;;;4920159;29;20145;-80
2022/08/27 08:10:42;;;;;;;8.02;2.92;;;;;;;;;;4920419;29;20043;-83
2022/08/27 08:13:08;;;;;;;10.25;2.78;;;;;;;;;;4918824;29;20492;-79
2022/08/27 08:15:34;;;;;;;3.97;2.10;;;;;;;;;;4918856;29;20483;-76
2022/08/27 08:18:01;;;;;;;8.50;1.92;;;;;;;;;;4918756;29;20032;-75
2022/08/27 08:20:27;;;;;;;11.18;2.10;;;;;;;;;;4918948;29;20114;-77
2022/08/27 08:22:53;;;;;;;5.10;1.65;;;;;;;;;;4918523;29;20032;-75
2022/08/27 08:25:19;;;;;;;2.72;1.60;;;;;;;;;;4935823;29;20382;-78
2022/08/27 08:27:46;;;;;;;7.75;2.00;;;;;;;;;;4904422;29;20115;-77
2022/08/27 08:30:13;;;;;;;4.63;2.00;;;;;;;;;;4898753;29;20599;-75
2022/08/27 08:32:39;;;;;;;6.65;1.88;;;;;;;;;;4918083;29;20028;-73
2022/08/27 08:35:06;;;;;;;5.93;1.55;;;;;;;;;;4917941;29;20039;-77
2022/08/27 08:37:33;;;;;;;4.15;1.80;;;;;;;;;;4925151;29;20024;-76
2022/08/27 08:40:01;;;;;;;5.93;1.92;;;;;;;;;;4908529;29;20028;-79
2022/08/27 08:42:30;;;;;;;7.32;1.77;;;;;;;;;;4915413;29;20032;-76
2022/08/27 08:44:57;;;;;;;5.43;1.80;;;;;;;;;;4915235;29;20405;-77
2022/08/27 08:47:32;;;;;;;4.25;1.80;;;;;;;;;;4918460;29;20039;-77
2022/08/27 08:50:09;;;;;;;2.20;1.48;;;;;;;;;;4920771;29;20083;-79
2022/08/27 08:52:36;;;;;;;4.90;1.88;;;;;;;;;;4919847;29;20072;-78
2022/08/27 08:55:21;;;;;;;3.95;2.15;;;;;;;;;;4918968;29;20032;-82
2022/08/27 08:57:54;;;;;;;3.13;1.63;;;;;;;;;;4919414;29;20087;-76
2022/08/27 09:00:20;;;;;;;5.43;2.03;;;;;;;;;;4918759;29;20031;-80
2022/08/27 09:02:53;;;;;;;6.82;2.00;;;;;;;;;;4918604;29;20382;-77
2022/08/27 09:05:19;;;;;;;3.88;1.70;;;;;;;;;;4920993;29;20032;-83
2022/08/27 09:07:55;;;;;;;5.78;2.25;;;;;;;;;;4919112;29;20122;-85
2022/08/27 09:10:40;;;;;;;5.40;1.92;;;;;;;;;;4926296;29;20032;-86
2022/08/27 09:13:11;;;;;;;4.65;2.17;;;;;;;;;;4918881;29;20032;-84
2022/08/27 09:15:37;;;;;;;7.63;3.13;;;;;;;;;;4916424;29;20442;-78
2022/08/27 09:18:05;;;;;;;3.58;2.25;;;;;;;;;;4914329;29;20032;-78
2022/08/27 09:20:31;;;;;;;5.70;2.35;;;;;;;;;;4911451;29;20089;-83
2022/08/27 09:23:05;;;;;;;4.20;2.00;;;;;;;;;;4911493;29;20036;-81
2022/08/27 09:25:33;;;;;;;3.75;1.80;;;;;;;;;;4916727;29;20123;-85
2022/08/27 09:28:01;;;;;;;5.78;2.00;;;;;;;;;;4914390;29;20024;-80
2022/08/27 09:30:28;;;;;;;6.95;2.53;;;;;;;;;;4927353;29;20036;-82
2022/08/27 09:32:56;;;;;;;5.07;1.95;;;;;;;;;;4909152;29;20028;-81
2022/08/27 09:35:24;;;;;;;9.60;1.90;;;;;;;;;;4926303;29;20030;-81
2022/08/27 09:37:52;;;;;;;5.40;2.10;;;;;;;;;;4915889;29;20478;-82
2022/08/27 09:40:19;;;;;;;8.82;2.40;;;;;;;;;;4920411;29;20478;-84
2022/08/27 09:42:52;;;;;;;3.95;1.80;;;;;;;;;;4902845;29;20028;-82
2022/08/27 09:45:18;;;;;;;5.45;2.15;;;;;;;;;;4902356;29;20045;-83
2022/08/27 09:47:46;;;;;;;4.88;1.90;;;;;;;;;;4902959;29;20040;-86
2022/08/27 09:50:12;;;;;;;3.47;1.90;;;;;;;;;;4903173;29;20028;-84
2022/08/27 09:52:55;;;;;;;5.38;1.88;;;;;;;;;;4892244;29;20064;-86
2022/08/27 09:55:44;;;;;;;12.90;2.40;;;;;;;;;;4885140;29;20115;-89
2022/08/27 09:58:36;;;;;;;3.95;1.85;;;;;;;;;;4880925;29;20120;-84
2022/08/27 10:01:19;;;;;;;4.63;2.05;;;;;;;;;;4873445;29;20045;-84
2022/08/27 10:03:45;;;;;;;3.10;1.70;;;;;;;;;;4882984;29;20032;-85
2022/08/27 10:06:11;;;;;;;3.60;1.70;;;;;;;;;;4900781;29;20119;-84
2022/08/27 10:08:43;;;;;;;5.35;1.70;;;;;;;;;;4883711;29;20024;-83
2022/08/27 10:11:20;;;;;;;4.88;1.92;;;;;;;;;;4883836;29;20546;-81
2022/08/27 10:13:52;;;;;;;3.80;1.85;;;;;;;;;;4885910;29;20032;-77
2022/08/27 10:16:18;;;;;;;6.53;2.25;;;;;;;;;;4883239;29;20108;-85
2022/08/27 10:19:16;;;;;;;6.38;1.70;;;;;;;;;;4885193;29;20061;-81
2022/08/27 10:21:45;;;;;;;6.25;1.88;;;;;;;;;;4905572;29;20067;-86
2022/08/27 10:24:18;;;;;;;3.92;1.70;;;;;;;;;;4891004;29;20070;-82
2022/08/27 10:26:47;;;;;;;3.55;1.73;;;;;;;;;;4911951;29;20035;-81
2022/08/27 10:29:37;;;;;;;9.02;2.80;;;;;;;;;;4903141;29;20441;-82
2022/08/27 10:32:12;;;;;;;6.43;1.88;;;;;;;;;;4902304;29;20048;-78
2022/08/27 10:34:38;;;;;;;9.35;2.28;;;;;;;;;;4901936;29;20039;-78
2022/08/27 10:37:17;;;;;;;4.90;1.70;;;;;;;;;;4901872;29;20087;-87
2022/08/27 10:39:46;;;;;;;6.25;1.98;;;;;;;;;;4902934;29;20028;-90
2022/08/27 10:42:19;;;;;;;4.85;2.00;;;;;;;;;;4902841;29;20123;-88
2022/08/27 10:44:48;;;;;;;6.38;1.85;;;;;;;;;;4901651;29;20134;-81
2022/08/27 10:47:20;;;;;;;5.57;1.90;;;;;;;;;;4900922;29;20052;-82
2022/08/27 10:49:46;;;;;;;3.83;1.75;;;;;;;;;;4901444;29;20028;-83
2022/08/27 10:52:12;;;;;;;4.20;1.80;;;;;;;;;;4908665;29;20469;-82
2022/08/27 10:54:40;;;;;;;6.88;1.77;;;;;;;;;;4920104;29;20036;-80
2022/08/27 10:57:29;;;;;;;6.90;2.10;;;;;;;;;;4917553;29;20024;-82
2022/08/27 10:59:55;;;;;;;3.47;1.98;;;;;;;;;;4920017;29;20122;-82
2022/08/27 11:02:34;;;;;;;3.55;1.73;;;;;;;;;;4909885;29;20020;-79
2022/08/27 11:05:05;;;;;;;5.20;1.95;;;;;;;;;;4908659;29;20032;-90
2022/08/27 11:07:51;;;;;;;9.02;2.33;;;;;;;;;;4907939;29;20064;-92
2022/08/27 11:10:23;;;;;;;5.00;1.85;;;;;;;;;;4907324;29;20032;-86
2022/08/27 11:12:52;;;;;;;6.38;2.30;;;;;;;;;;4931287;29;20485;-75
2022/08/27 11:15:27;;;;;;;7.70;1.92;;;;;;;;;;4928461;29;20068;-88
2022/08/27 11:17:59;;;;;;;4.03;1.67;;;;;;;;;;4910387;29;20028;-78
2022/08/27 11:20:25;;;;;;;;;;;;;;;;;;4924385;29;20036;-86
2022/08/27 11:22:56;;;;;;;4.57;2.00;;;;;;;;;;4928627;29;20452;-73
2022/08/27 11:25:41;;;;;;;10.20;1.97;;;;;;;;;;4922502;29;20075;-84
2022/08/27 11:28:09;;;;;;;5.82;1.90;;;;;;;;;;4917654;29;20028;-85
2022/08/27 11:30:43;;;;;;;3.40;1.65;;;;;;;;;;4914764;29;20481;-77
2022/08/27 11:33:14;;;;;;;7.43;1.60;;;;;;;;;;4911562;29;20020;-76
2022/08/27 11:35:55;;;;;;;5.03;2.22;;;;;;;;;;4906481;29;20039;-86
2022/08/27 11:38:31;;;;;;;5.60;2.40;;;;;;;;;;4918218;29;20083;-87
2022/08/27 11:41:06;;;;;;;6.28;2.53;;;;;;;;;;4916798;29;20028;-77
2022/08/27 11:43:34;;;;;;;4.13;2.17;;;;;;;;;;4915541;29;20496;-77
2022/08/27 11:46:02;;;;;;;5.03;2.50;;;;;;;;;;4904266;29;20055;-88
2022/08/27 11:48:30;;;;;;;7.60;2.35;;;;;;;;;;4911769;29;20036;-85
2022/08/27 11:50:59;;;;;;;6.95;2.13;;;;;;;;;;4907316;29;20031;-73
2022/08/27 11:53:48;;;;;;;7.50;2.20;;;;;;;;;;4925558;29;20047;-74
2022/08/27 11:56:19;;;;;;;6.47;2.10;;;;;;;;;;4919740;29;20389;-76
2022/08/27 11:58:46;;;;;;;4.38;2.08;;;;;;;;;;4925211;29;20036;-82
2022/08/27 12:01:31;;;;;;;11.23;2.42;;;;;;;;;;4908280;29;20478;-79
2022/08/27 12:04:18;;;;;;;6.35;2.35;;;;;;;;;;4920282;29;20032;-76
2022/08/27 12:06:52;;;;;;;6.05;2.28;;;;;;;;;;4907472;29;20437;-74
2022/08/27 12:09:23;;;;;;;7.10;2.08;;;;;;;;;;4911567;29;20497;-74
2022/08/27 12:11:55;;;;;;;5.47;2.17;;;;;;;;;;4915822;29;20024;-77
2022/08/27 12:14:40;;;;;;;8.85;2.20;;;;;;;;;;4919728;29;20043;-75
2022/08/27 12:17:27;;;;;;;3.33;1.75;;;;;;;;;;4911298;29;20131;-75
2022/08/27 12:20:08;;;;;;;6.03;1.92;;;;;;;;;;4937675;29;20056;-75
2022/08/27 12:25:28;;;;;;;9.35;2.42;;;;;;;;;;4930855;29;20100;-76
2022/08/27 12:27:56;;;;;;;7.72;2.22;;;;;;;;;;4911850;29;20112;-74
2022/08/27 12:30:28;;;;;;;3.75;1.80;;;;;;;;;;4927706;29;20115;-74
2022/08/27 12:32:55;;;;;;;5.57;2.00;;;;;;;;;;4927395;29;20051;-76
2022/08/27 12:35:32;;;;;;;11.40;2.45;;;;;;;;;;4931491;29;20452;-73
2022/08/27 12:38:25;;;;;;;9.40;2.58;;;;;;;;;;4928933;29;20425;-74
2022/08/27 12:41:02;;;;;;;6.25;2.13;;;;;;;;;;4904855;29;20040;-94
2022/08/27 12:43:32;;;;;;;8.68;2.30;;;;;;;;;;4930102;29;20024;-75
2022/08/27 12:46:01;;;;;;;7.03;1.90;;;;;;;;;;4911709;29;20036;-74
2022/08/27 12:48:29;;;;;;;7.80;2.20;;;;;;;;;;4928939;29;20080;-91
2022/08/27 12:51:03;;;;;;;7.63;2.15;;;;;;;;;;4935262;29;20119;-75
2022/08/27 12:53:32;;;;;;;4.53;2.25;;;;;;;;;;4939049;29;20044;-74
2022/08/27 12:55:59;;;;;;;7.90;2.42;;;;;;;;;;4941222;29;20020;-76
2022/08/27 12:58:37;;;;;;;4.82;2.50;;;;;;;;;;4924798;29;20054;-75
2022/08/27 13:01:12;;;;;;;9.93;2.30;;;;;;;;;;4927460;29;20040;-93
2022/08/27 13:04:04;;;;;;;7.30;2.40;;;;;;;;;;4913311;29;20031;-90
2022/08/27 13:06:50;;;;;;;9.02;2.38;;;;;;;;;;4933262;29;20033;-91
2022/08/27 13:09:16;;;;;;;12.98;2.17;;;;;;;;;;4915660;29;20079;-80
2022/08/27 13:11:47;;;;;;;6.30;2.30;;;;;;;;;;4922138;29;20067;-77
2022/08/27 13:14:21;;;;;;;4.80;1.77;;;;;;;;;;4933620;29;20023;-85
2022/08/27 13:16:52;;;;;;;3.92;2.05;;;;;;;;;;4927295;29;20385;-79
2022/08/27 13:19:24;;;;;;;7.22;1.73;;;;;;;;;;4911551;29;20025;-83
2022/08/27 13:21:52;;;;;;;9.93;1.40;;;;;;;;;;4911538;29;20028;-87
2022/08/27 13:24:20;;;;;;;5.65;2.03;;;;;;;;;;4930608;29;20284;-77
2022/08/27 13:26:49;;;;;;;6.75;2.10;;;;;;;;;;4928806;29;20042;-85
2022/08/27 13:29:15;;;;;;;4.53;1.80;;;;;;;;;;4926918;29;20031;-85
2022/08/27 13:31:44;;;;;;;6.28;2.30;;;;;;;;;;4932119;29;20050;-92
2022/08/27 13:34:18;;;;;;;8.57;2.20;;;;;;;;;;4929692;29;20018;-75
2022/08/27 13:37:06;;;;;;;3.83;2.20;;;;;;;;;;4914973;29;20126;-93
2022/08/27 13:39:37;;;;;;;6.10;2.22;;;;;;;;;;4923702;29;20081;-92
2022/08/27 13:42:12;;;;;;;4.43;2.00;;;;;;;;;;4908067;29;20024;-92
2022/08/27 13:44:40;;;;;;;4.82;2.17;;;;;;;;;;4938478;29;20028;-77
2022/08/27 13:47:14;;;;;;;6.03;3.00;;;;;;;;;;4930092;29;20064;-74
2022/08/27 13:49:44;;;;;;;11.32;2.75;;;;;;;;;;4924284;29;20039;-93
2022/08/27 13:52:30;;;;;;;5.85;2.28;;;;;;;;;;4922614;29;20054;-76
2022/08/27 13:55:05;;;;;;;7.88;2.22;;;;;;;;;;4936652;29;20028;-91
2022/08/27 13:57:45;;;;;;;4.57;2.30;;;;;;;;;;4899821;29;20060;-90
2022/08/27 14:00:30;;;;;;;7.35;2.42;;;;;;;;;;4906352;29;20028;-78
2022/08/27 14:02:57;;;;;;;9.80;3.35;;;;;;;;;;4930057;29;20019;-83
2022/08/27 14:05:23;;;;;;;5.53;2.35;;;;;;;;;;4926253;29;20062;-74
2022/08/27 14:07:56;;;;;;;8.68;2.53;;;;;;;;;;4928352;29;20078;-75
2022/08/27 14:10:25;;;;;;;5.82;2.45;;;;;;;;;;4928138;29;20087;-81
2022/08/27 14:12:59;;;;;;;10.93;3.10;;;;;;;;;;4926549;29;20024;-75
2022/08/27 14:15:37;;;;;;;4.20;1.90;;;;;;;;;;4907969;29;20035;-80
2022/08/27 14:18:11;;;;;;;7.13;2.40;;;;;;;;;;4925466;29;20116;-91
2022/08/27 14:20:38;;;;;;;9.43;2.28;;;;;;;;;;4922120;29;20036;-76
2022/08/27 14:23:06;;;;;;;5.22;2.20;;;;;;;;;;4922187;29;20032;-87
2022/08/27 14:25:36;;;;;;;5.55;2.42;;;;;;;;;;4927388;29;20469;-91
2022/08/27 14:28:05;;;;;;;7.03;2.53;;;;;;;;;;4927436;29;20031;-91
2022/08/27 14:30:31;;;;;;;8.65;2.83;;;;;;;;;;4918208;29;20036;-75
2022/08/27 14:32:59;;;;;;;7.18;2.80;;;;;;;;;;4918818;29;20032;-75
2022/08/27 14:35:25;;;;;;;5.95;2.55;;;;;;;;;;4918588;29;20171;-76
2022/08/27 14:37:51;;;;;;;8.80;2.97;;;;;;;;;;4923216;29;20088;-92
2022/08/27 14:40:18;;;;;;;9.68;2.92;;;;;;;;;;4921906;29;20032;-81
2022/08/27 14:42:44;;;;;;;9.00;2.80;;;;;;;;;;4917077;29;20056;-75
2022/08/27 14:45:10;;;;;;;5.40;3.00;;;;;;;;;;4919151;29;20040;-76
2022/08/27 14:47:50;;;;;;;7.95;2.70;;;;;;;;;;4917248;29;20048;-92
2022/08/27 14:50:16;;;;;;;7.55;2.72;;;;;;;;;;4917690;29;20068;-74
2022/08/27 14:52:42;;;;;;;5.85;2.70;;;;;;;;;;4918561;29;20062;-92
2022/08/27 14:55:10;;;;;;;6.40;2.55;;;;;;;;;;4925081;29;20028;-76
2022/08/27 14:57:41;;;;;;;6.45;2.60;;;;;;;;;;4938763;29;20052;-93
2022/08/27 15:00:08;;;;;;;6.47;3.17;;;;;;;;;;4917499;29;20020;-92
2022/08/27 15:02:35;;;;;;;7.38;2.70;;;;;;;;;;4929800;29;20074;-90
2022/08/27 15:05:07;;;;;;;4.13;2.42;;;;;;;;;;4909294;29;20510;-90